Time;durP1;ratioP1;P1;durP2;ratioP2;P2;SDS_P1;SDS_P2;PMS_P1;PMS_P2;Temp;Humidity;BMP_temperature;BMP_pressure;BME280_temperature;BME280_humidity;BME280_pressure;Samples;Min_cycle;Max_cycle;Signal;HPM_P1;HPM_P2
2023/06/15 00:00:19;;;;;;;12.90;4.60;;;;;;;23.38;67.37;100279.80;108264;1287;22458;-65
2023/06/15 00:02:45;;;;;;;8.20;4.90;;;;;;;23.33;67.53;100278.00;108166;1287;21999;-65
2023/06/15 00:05:11;;;;;;;6.70;4.80;;;;;;;23.27;67.66;100278.02;108217;1287;22030;-65
2023/06/15 00:07:37;;;;;;;10.10;5.60;;;;;;;23.21;67.96;100280.20;108166;1287;21992;-65
2023/06/15 00:10:04;;;;;;;7.40;5.10;;;;;;;23.14;67.93;100277.95;108105;1287;21990;-67
2023/06/15 00:12:30;;;;;;;8.70;5.20;;;;;;;23.08;67.69;100277.50;108116;1281;22008;-67
2023/06/15 00:14:56;;;;;;;8.20;5.40;;;;;;;23.03;68.02;100274.92;108148;1287;21995;-65
2023/06/15 00:17:23;;;;;;;10.50;5.00;;;;;;;23.02;68.06;100271.97;108134;1287;21989;-65
2023/06/15 00:19:48;;;;;;;7.40;4.50;;;;;;;23.03;68.32;100269.94;108097;1287;23644;-66
2023/06/15 00:22:14;;;;;;;15.10;6.00;;;;;;;23.06;68.38;100270.31;108092;1285;21997;-65
2023/06/15 00:24:43;;;;;;;11.00;5.10;;;;;;;23.06;68.22;100274.04;108104;1286;21991;-65
2023/06/15 00:27:11;;;;;;;8.40;5.00;;;;;;;23.03;68.00;100272.27;108144;1283;21953;-67
2023/06/15 00:29:37;;;;;;;7.10;4.50;;;;;;;22.98;68.04;100270.95;108116;1278;21996;-65
2023/06/15 00:32:06;;;;;;;7.10;4.60;;;;;;;22.99;68.35;100269.45;108103;1287;23057;-67
2023/06/15 00:34:33;;;;;;;7.30;4.30;;;;;;;23.03;68.53;100267.95;108159;1284;22000;-65
2023/06/15 00:36:58;;;;;;;9.70;4.60;;;;;;;23.07;68.64;100267.91;108104;1287;21999;-66
2023/06/15 00:39:24;;;;;;;5.50;4.30;;;;;;;23.08;68.41;100264.98;108079;1287;22018;-65
2023/06/15 00:41:50;;;;;;;5.80;4.10;;;;;;;23.06;68.11;100260.98;108093;1287;22019;-65
2023/06/15 00:44:15;;;;;;;10.60;4.80;;;;;;;23.03;67.88;100261.30;108091;1278;22009;-65
2023/06/15 00:46:41;;;;;;;10.80;4.60;;;;;;;23.02;67.73;100261.06;108133;1287;21983;-66
2023/06/15 00:49:07;;;;;;;13.00;5.30;;;;;;;22.98;67.85;100262.58;108182;1287;21984;-66
2023/06/15 00:51:33;;;;;;;9.50;5.10;;;;;;;22.95;67.89;100262.78;107960;1287;22002;-67
2023/06/15 00:53:59;;;;;;;6.80;4.40;;;;;;;22.93;67.61;100259.15;108119;1287;21993;-65
2023/06/15 00:56:29;;;;;;;8.30;4.70;;;;;;;22.92;67.56;100257.11;107890;1283;21987;-67
2023/06/15 00:58:56;;;;;;;8.20;5.20;;;;;;;22.85;67.20;100256.95;108165;1287;21991;-66
2023/06/15 01:01:23;;;;;;;7.20;4.70;;;;;;;22.79;67.24;100256.13;108295;1286;22002;-65
2023/06/15 01:03:49;;;;;;;5.40;4.10;;;;;;;22.75;67.51;100258.48;108233;1286;21997;-66
2023/06/15 01:06:15;;;;;;;8.20;4.90;;;;;;;22.73;67.90;100262.20;108231;1281;21989;-65
2023/06/15 01:08:41;;;;;;;8.40;4.30;;;;;;;22.73;68.13;100260.59;108105;1287;21999;-65
2023/06/15 01:11:06;;;;;;;9.80;4.50;;;;;;;22.75;68.13;100262.48;108132;1285;22009;-65
2023/06/15 01:13:32;;;;;;;8.20;4.10;;;;;;;22.74;68.15;100259.83;108159;1286;21989;-65
2023/06/15 01:15:58;;;;;;;7.30;3.90;;;;;;;22.72;68.12;100257.79;108139;1284;22451;-65
2023/06/15 01:18:24;;;;;;;7.10;4.40;;;;;;;22.70;68.16;100256.17;107886;1286;22003;-65
2023/06/15 01:20:53;;;;;;;9.60;4.40;;;;;;;22.66;67.64;100255.20;107836;1287;22025;-67
2023/06/15 01:23:40;;;;;;;9.80;4.20;;;;;;;22.63;67.38;100254.29;108163;1287;22027;-66
2023/06/15 01:26:07;;;;;;;6.20;4.00;;;;;;;22.61;67.17;100251.17;108112;1287;21987;-66
2023/06/15 01:28:34;;;;;;;10.00;4.20;;;;;;;22.58;67.09;100248.52;108195;1286;21996;-65
2023/06/15 01:31:00;;;;;;;9.80;4.90;;;;;;;22.56;67.08;100254.21;108139;1286;21996;-65
2023/06/15 01:33:25;;;;;;;9.00;4.80;;;;;;;22.55;67.21;100256.58;108187;1286;21985;-65
2023/06/15 01:35:51;;;;;;;5.30;4.00;;;;;;;22.54;67.33;100255.73;108115;1287;21991;-67
2023/06/15 01:38:18;;;;;;;8.70;4.10;;;;;;;22.53;67.17;100257.40;108119;1286;22004;-65
2023/06/15 01:40:46;;;;;;;6.60;3.90;;;;;;;22.52;67.52;100258.55;108275;1286;21992;-65
2023/06/15 01:43:15;;;;;;;7.70;4.30;;;;;;;22.51;67.69;100262.02;108223;1286;23644;-65
2023/06/15 01:45:43;;;;;;;9.00;4.40;;;;;;;22.51;67.59;100263.86;108227;1281;21983;-65
2023/06/15 01:48:09;;;;;;;7.00;3.90;;;;;;;22.50;67.55;100265.52;108127;1286;21988;-66
2023/06/15 01:50:35;;;;;;;8.10;3.70;;;;;;;22.48;67.54;100263.64;108167;1284;22093;-65
2023/06/15 01:53:01;;;;;;;9.00;4.10;;;;;;;22.47;67.46;100265.18;108158;1277;21994;-67
2023/06/15 01:55:27;;;;;;;6.70;3.60;;;;;;;22.42;67.54;100267.93;108173;1286;21996;-65
2023/06/15 01:57:53;;;;;;;5.20;3.40;;;;;;;22.33;67.62;100267.59;107868;1286;22213;-69
2023/06/15 02:00:21;;;;;;;9.60;4.30;;;;;;;22.25;67.72;100268.64;108322;1281;22024;-68
2023/06/15 02:02:47;;;;;;;8.20;4.30;;;;;;;22.16;67.60;100266.70;108165;1286;21985;-67
2023/06/15 02:05:13;;;;;;;6.90;4.10;;;;;;;22.11;67.56;100269.31;108139;1286;21983;-68
2023/06/15 02:07:40;;;;;;;8.60;4.10;;;;;;;22.07;67.77;100270.14;108130;1286;21990;-67
2023/06/15 02:10:07;;;;;;;10.40;4.10;;;;;;;22.02;67.84;100271.15;108232;1286;22521;-66
2023/06/15 02:12:33;;;;;;;8.50;3.70;;;;;;;21.97;67.91;100268.73;108156;1286;21994;-67
2023/06/15 02:15:02;;;;;;;9.90;4.50;;;;;;;21.96;68.15;100267.56;108118;1286;21998;-66
2023/06/15 02:17:32;;;;;;;7.30;3.80;;;;;;;21.94;68.28;100269.16;108268;1286;21996;-66
2023/06/15 02:19:58;;;;;;;7.50;3.80;;;;;;;21.89;68.21;100271.95;108271;1286;22452;-66
2023/06/15 02:22:23;;;;;;;7.10;4.00;;;;;;;21.86;68.40;100271.44;108162;1286;21997;-66
2023/06/15 02:24:49;;;;;;;7.40;4.10;;;;;;;21.84;68.73;100272.06;108239;1286;22850;-68
2023/06/15 02:27:15;;;;;;;6.70;4.00;;;;;;;21.83;69.32;100268.90;108142;1286;21992;-67
2023/06/15 02:29:41;;;;;;;6.60;3.80;;;;;;;21.91;69.18;100269.33;108159;1281;23746;-66
2023/06/15 02:32:07;;;;;;;6.20;3.60;;;;;;;21.94;69.11;100270.36;108141;1281;21989;-65
2023/06/15 02:34:33;;;;;;;8.80;4.30;;;;;;;21.94;68.91;100267.66;108217;1286;21985;-66
2023/06/15 02:36:59;;;;;;;5.80;4.00;;;;;;;21.93;69.08;100268.30;108217;1286;21986;-68
2023/06/15 02:39:25;;;;;;;7.20;4.50;;;;;;;21.88;69.91;100269.83;108224;1286;22029;-65
2023/06/15 02:41:50;;;;;;;11.90;4.30;;;;;;;21.89;70.33;100271.75;108191;1286;22244;-65
2023/06/15 02:44:16;;;;;;;8.80;3.90;;;;;;;21.90;70.52;100273.29;108263;1284;21985;-67
2023/06/15 02:46:42;;;;;;;9.60;4.10;;;;;;;21.92;70.91;100271.21;108181;1286;21995;-67
2023/06/15 02:49:08;;;;;;;8.80;3.90;;;;;;;21.98;71.18;100269.98;108199;1283;22454;-67
2023/06/15 02:51:35;;;;;;;10.00;4.50;;;;;;;22.05;71.61;100264.55;108092;1285;21997;-66
2023/06/15 02:54:01;;;;;;;7.20;4.10;;;;;;;22.13;71.98;100263.66;108197;1285;22023;-68
2023/06/15 02:56:29;;;;;;;10.40;4.20;;;;;;;22.24;72.45;100266.94;108159;1285;21997;-68
2023/06/15 02:58:54;;;;;;;11.00;5.20;;;;;;;22.35;73.20;100270.14;108119;1281;22039;-68
2023/06/15 03:01:21;;;;;;;8.40;4.30;;;;;;;22.48;73.44;100276.67;108296;1283;22032;-67
2023/06/15 03:03:47;;;;;;;10.90;3.90;;;;;;;22.60;73.33;100277.55;108319;1285;21992;-67
2023/06/15 03:06:14;;;;;;;14.80;4.60;;;;;;;22.72;73.77;100278.38;108047;1285;22055;-66
2023/06/15 03:08:41;;;;;;;11.20;4.80;;;;;;;22.84;74.08;100278.66;108233;1285;22023;-67
2023/06/15 03:11:07;;;;;;;7.30;4.00;;;;;;;22.96;74.35;100273.63;108213;1277;21996;-66
2023/06/15 03:13:33;;;;;;;13.00;4.90;;;;;;;23.08;74.15;100274.46;108251;1285;21986;-67
2023/06/15 03:16:01;;;;;;;11.80;4.40;;;;;;;23.18;74.19;100273.39;108212;1285;21978;-67
2023/06/15 03:18:28;;;;;;;9.40;4.60;;;;;;;23.28;74.23;100278.48;108203;1285;21983;-67
2023/06/15 03:20:57;;;;;;;12.70;4.80;;;;;;;23.37;74.18;100276.86;108187;1285;22023;-67
2023/06/15 03:23:25;;;;;;;9.20;4.10;;;;;;;23.43;74.23;100283.05;108230;1285;21979;-66
2023/06/15 03:25:52;;;;;;;6.40;4.00;;;;;;;23.50;74.32;100289.21;108229;1285;22002;-66
2023/06/15 03:28:24;;;;;;;9.50;4.50;;;;;;;23.58;74.67;100294.55;108223;1285;21994;-66
2023/06/15 03:30:53;;;;;;;7.50;3.90;;;;;;;23.68;74.56;100298.76;108271;1283;21980;-68
2023/06/15 03:33:21;;;;;;;11.10;4.50;;;;;;;23.77;74.52;100297.25;108161;1285;21985;-66
2023/06/15 03:35:48;;;;;;;12.30;4.20;;;;;;;23.84;74.36;100290.88;108221;1281;21985;-66
2023/06/15 03:38:16;;;;;;;7.70;4.20;;;;;;;23.88;74.17;100292.52;108262;1285;22042;-66
2023/06/15 03:40:44;;;;;;;9.00;4.40;;;;;;;23.92;74.11;100288.14;108238;1285;21986;-67
2023/06/15 03:43:11;;;;;;;6.40;4.30;;;;;;;23.98;74.03;100288.47;108236;1285;21955;-66
2023/06/15 03:45:37;;;;;;;7.80;4.30;;;;;;;24.01;74.34;100289.16;108234;1284;21991;-67
2023/06/15 03:48:03;;;;;;;10.90;5.20;;;;;;;24.04;74.38;100287.54;108167;1285;24031;-67
2023/06/15 03:50:29;;;;;;;7.80;4.60;;;;;;;24.07;73.95;100286.77;108230;1277;21984;-68
2023/06/15 03:52:55;;;;;;;7.30;4.10;;;;;;;24.10;73.99;100287.45;108199;1280;22026;-68
2023/06/15 03:55:21;;;;;;;7.50;4.00;;;;;;;24.15;73.86;100289.80;108197;1285;22055;-67
2023/06/15 03:57:47;;;;;;;9.40;4.30;;;;;;;24.19;73.80;100286.13;108217;1282;21995;-67
2023/06/15 04:00:13;;;;;;;6.50;4.70;;;;;;;24.23;73.96;100283.65;108157;1285;21989;-67
2023/06/15 04:02:40;;;;;;;7.00;4.50;;;;;;;24.29;74.06;100283.95;108199;1286;21992;-67
2023/06/15 04:05:06;;;;;;;7.80;4.60;;;;;;;24.34;74.19;100283.05;108128;1287;22006;-67
2023/06/15 04:07:33;;;;;;;7.10;4.90;;;;;;;24.40;74.51;100286.42;108103;1286;22458;-67
2023/06/15 04:09:59;;;;;;;6.10;4.50;;;;;;;24.46;74.69;100285.47;108156;1286;22170;-67
2023/06/15 04:12:24;;;;;;;8.80;4.10;;;;;;;24.50;74.57;100289.45;108173;1277;22029;-67
2023/06/15 04:14:50;;;;;;;7.30;5.00;;;;;;;24.56;75.18;100289.62;108140;1283;22919;-68
2023/06/15 04:17:18;;;;;;;8.10;5.00;;;;;;;24.63;76.15;100290.69;108143;1281;21987;-68
2023/06/15 04:19:45;;;;;;;12.00;4.60;;;;;;;24.72;75.83;100296.16;108115;1286;22035;-68
2023/06/15 04:22:11;;;;;;;7.50;5.00;;;;;;;24.80;75.30;100299.70;108230;1286;22008;-66
2023/06/15 04:24:37;;;;;;;5.70;4.30;;;;;;;24.91;75.73;100303.39;108160;1286;21998;-67
2023/06/15 04:27:03;;;;;;;7.60;4.70;;;;;;;25.05;76.57;100302.77;108148;1286;21990;-65
2023/06/15 04:29:30;;;;;;;6.90;4.80;;;;;;;25.18;76.15;100306.60;108132;1286;21999;-65
2023/06/15 04:31:57;;;;;;;5.90;4.50;;;;;;;25.29;75.92;100305.02;108177;1286;21986;-67
2023/06/15 04:34:24;;;;;;;9.50;4.70;;;;;;;25.39;75.31;100304.30;108177;1286;21991;-65
2023/06/15 04:36:50;;;;;;;9.10;4.70;;;;;;;25.48;75.43;100309.39;108171;1286;22050;-68
2023/06/15 04:39:16;;;;;;;6.20;4.70;;;;;;;25.60;75.96;100310.33;108168;1286;22005;-65
2023/06/15 04:41:42;;;;;;;9.10;5.10;;;;;;;25.73;76.04;100312.73;108149;1284;21980;-64
2023/06/15 04:44:08;;;;;;;6.50;4.70;;;;;;;25.85;76.12;100315.92;108159;1286;21993;-67
2023/06/15 04:46:36;;;;;;;10.40;8.00;;;;;;;25.98;76.00;100314.03;108154;1286;22269;-64
2023/06/15 04:49:03;;;;;;;8.50;4.80;;;;;;;26.07;75.08;100317.48;108141;1286;21992;-64
2023/06/15 04:51:30;;;;;;;7.10;4.90;;;;;;;26.13;75.23;100320.40;108252;1280;21989;-68
2023/06/15 04:53:56;;;;;;;6.80;5.10;;;;;;;26.22;75.42;100315.98;108205;1278;22465;-64
2023/06/15 04:56:22;;;;;;;8.10;5.10;;;;;;;26.32;75.26;100320.91;108180;1283;21995;-66
2023/06/15 04:58:48;;;;;;;8.80;5.10;;;;;;;26.42;75.60;100316.71;108167;1286;22450;-68
2023/06/15 05:01:14;;;;;;;13.00;9.50;;;;;;;26.54;75.22;100317.39;108126;1276;21989;-63
2023/06/15 05:03:40;;;;;;;8.30;6.90;;;;;;;26.64;75.74;100319.13;108106;1287;22027;-64
2023/06/15 05:06:07;;;;;;;8.70;5.30;;;;;;;26.77;74.92;100321.70;108139;1278;21996;-62
2023/06/15 05:08:34;;;;;;;8.70;5.20;;;;;;;26.87;74.52;100320.85;108133;1276;21992;-68
2023/06/15 05:11:01;;;;;;;7.90;4.40;;;;;;;26.98;73.72;100322.88;108207;1281;22103;-62
2023/06/15 05:13:27;;;;;;;9.00;4.30;;;;;;;27.08;74.61;100317.88;108188;1286;21987;-62
2023/06/15 05:15:53;;;;;;;10.70;4.70;;;;;;;27.24;75.64;100315.17;108166;1286;21987;-63
2023/06/15 05:18:19;;;;;;;6.60;4.50;;;;;;;27.40;75.59;100317.60;108072;1286;21999;-68
2023/06/15 05:20:45;;;;;;;7.20;4.10;;;;;;;27.56;75.89;100318.98;108178;1286;21987;-68
2023/06/15 05:23:11;;;;;;;6.70;4.20;;;;;;;27.71;75.59;100317.13;108176;1281;21994;-65
2023/06/15 05:25:37;;;;;;;8.40;4.90;;;;;;;27.89;75.59;100316.58;108159;1281;22003;-64
2023/06/15 05:28:03;;;;;;;7.40;4.70;;;;;;;28.04;75.33;100317.55;108247;1280;22032;-70
2023/06/15 05:30:29;;;;;;;9.70;4.60;;;;;;;28.17;74.13;100318.81;108165;1285;21973;-67
2023/06/15 05:32:55;;;;;;;9.80;5.30;;;;;;;28.24;73.40;100320.00;108187;1286;26033;-68
2023/06/15 05:35:21;;;;;;;5.60;5.00;;;;;;;28.34;73.69;100322.42;108158;1282;21990;-70
2023/06/15 05:37:47;;;;;;;6.40;5.40;;;;;;;28.46;73.08;100323.73;108180;1286;22030;-62
2023/06/15 05:40:13;;;;;;;7.40;4.50;;;;;;;28.49;71.81;100324.50;108109;1277;21995;-62
2023/06/15 05:42:38;;;;;;;6.90;4.20;;;;;;;28.57;72.84;100324.19;108126;1277;21999;-61
2023/06/15 05:45:05;;;;;;;5.80;4.30;;;;;;;28.75;71.78;100321.55;108127;1286;23083;-63
2023/06/15 05:47:34;;;;;;;7.20;4.80;;;;;;;28.84;70.86;100323.05;108201;1277;22040;-63
2023/06/15 05:50:00;;;;;;;7.50;4.30;;;;;;;28.94;71.28;100325.00;108145;1286;21989;-63
2023/06/15 05:52:25;;;;;;;9.00;5.20;;;;;;;29.04;70.15;100329.38;108160;1283;22029;-63
2023/06/15 05:54:51;;;;;;;5.70;4.30;;;;;;;29.17;70.43;100331.44;108143;1276;22025;-66
2023/06/15 05:57:17;;;;;;;5.70;4.10;;;;;;;29.28;69.84;100330.63;108166;1286;21986;-71
2023/06/15 05:59:46;;;;;;;8.30;4.70;;;;;;;29.41;69.97;100329.96;108117;1283;184530;-72
2023/06/15 06:02:12;;;;;;;8.60;4.80;;;;;;;29.58;69.54;100327.77;108127;1286;21994;-72
2023/06/15 06:04:39;;;;;;;8.60;4.60;;;;;;;29.76;70.40;100330.23;108137;1286;22464;-64
2023/06/15 06:07:05;;;;;;;10.00;4.20;;;;;;;29.95;69.60;100325.52;108113;1282;23715;-73
2023/06/15 06:09:33;;;;;;;7.50;4.70;;;;;;;30.19;70.05;100319.33;108184;1283;21983;-72
2023/06/15 06:12:00;;;;;;;8.90;4.00;;;;;;;30.48;70.47;100317.55;108254;1285;23718;-73
2023/06/15 06:14:29;;;;;;;6.80;4.30;;;;;;;30.72;68.79;100319.84;108185;1277;24324;-73
2023/06/15 06:16:55;;;;;;;5.70;4.00;;;;;;;30.94;68.67;100318.05;108103;1285;21979;-72
2023/06/15 06:19:22;;;;;;;5.30;4.00;;;;;;;31.13;66.85;100318.25;108136;1280;21987;-71
2023/06/15 06:21:47;;;;;;;6.80;4.20;;;;;;;31.29;64.74;100318.02;108149;1285;22005;-71
2023/06/15 06:24:13;;;;;;;5.70;3.90;;;;;;;31.43;65.19;100318.58;108221;1285;22150;-63
2023/06/15 06:26:39;;;;;;;7.40;3.60;;;;;;;31.58;65.68;100317.76;108106;1285;22031;-70
2023/06/15 06:29:04;;;;;;;6.80;4.30;;;;;;;31.78;65.94;100317.04;108115;1276;22026;-71
2023/06/15 06:31:30;;;;;;;6.40;4.50;;;;;;;32.02;65.83;100317.30;108133;1285;21986;-63
2023/06/15 06:33:56;;;;;;;5.40;4.10;;;;;;;32.37;66.18;100317.09;108226;1285;22006;-70
2023/06/15 06:36:21;;;;;;;6.60;4.10;;;;;;;32.66;64.54;100318.75;108177;1285;22000;-70
2023/06/15 06:38:47;;;;;;;7.90;3.90;;;;;;;32.82;63.06;100319.20;108276;1277;21953;-71
2023/06/15 06:41:14;;;;;;;5.60;3.80;;;;;;;32.97;62.97;100316.96;108234;1285;21992;-62
2023/06/15 06:43:39;;;;;;;6.00;3.60;;;;;;;33.16;61.84;100319.81;108153;1285;22041;-63
2023/06/15 06:46:05;;;;;;;7.10;3.40;;;;;;;33.37;62.31;100317.70;108117;1283;23512;-64
2023/06/15 06:48:31;;;;;;;9.00;4.10;;;;;;;33.62;61.84;100312.80;108152;1282;22270;-63
2023/06/15 06:50:57;;;;;;;4.70;4.10;;;;;;;33.90;60.70;100315.27;108178;1286;23664;-64
2023/06/15 06:53:23;;;;;;;5.60;3.60;;;;;;;34.11;58.26;100316.80;108163;1277;22002;-71
2023/06/15 06:55:49;;;;;;;6.20;3.40;;;;;;;34.14;56.34;100316.82;108089;1283;22002;-71
2023/06/15 06:58:14;;;;;;;4.40;3.80;;;;;;;34.06;55.33;100320.81;108236;1281;21993;-71
2023/06/15 07:00:41;;;;;;;4.60;3.10;;;;;;;34.03;55.52;100322.23;108136;1286;22965;-71
2023/06/15 07:03:07;;;;;;;5.90;3.70;;;;;;;34.09;56.54;100323.17;108203;1286;21975;-72
2023/06/15 07:05:33;;;;;;;6.60;3.30;;;;;;;34.32;56.92;100321.48;108233;1285;21977;-71
2023/06/15 07:07:59;;;;;;;5.10;3.20;;;;;;;34.56;54.77;100315.70;108212;1277;21992;-71
2023/06/15 07:10:25;;;;;;;6.30;3.60;;;;;;;34.74;54.68;100313.42;108206;1277;21996;-71
2023/06/15 07:12:55;;;;;;;6.30;3.10;;;;;;;34.80;53.72;100308.88;108156;1285;21990;-70
2023/06/15 07:15:27;;;;;;;7.20;3.20;;;;;;;35.04;55.94;100307.04;108191;1285;22761;-71
2023/06/15 07:17:53;;;;;;;17.10;11.70;;;;;;;35.33;54.07;100304.10;108295;1285;23618;-72
2023/06/15 07:20:19;;;;;;;11.10;8.30;;;;;;;35.42;52.70;100298.88;108325;1276;21990;-71
2023/06/15 07:22:45;;;;;;;6.40;4.50;;;;;;;35.51;52.91;100298.25;108243;1285;22021;-72
2023/06/15 07:25:11;;;;;;;7.10;3.80;;;;;;;35.61;52.17;100299.26;108151;1286;22275;-72
2023/06/15 07:27:37;;;;;;;4.80;3.40;;;;;;;35.60;50.91;100298.65;108244;1283;21990;-71
2023/06/15 07:30:05;;;;;;;4.30;3.30;;;;;;;35.68;51.26;100297.69;108228;1286;23647;-72
2023/06/15 07:32:31;;;;;;;5.20;3.30;;;;;;;35.78;49.05;100297.98;108220;1283;21996;-72
2023/06/15 07:34:57;;;;;;;5.50;3.10;;;;;;;35.79;49.55;100301.44;108166;1286;23716;-72
2023/06/15 07:37:22;;;;;;;4.90;2.90;;;;;;;35.92;49.64;100299.33;108236;1286;21989;-70
2023/06/15 07:40:07;;;;;;;7.80;3.20;;;;;;;36.08;49.94;100295.91;108196;1286;22007;-63
2023/06/15 07:42:33;;;;;;;6.00;3.20;;;;;;;36.21;48.91;100296.16;108242;1286;22185;-71
2023/06/15 07:44:58;;;;;;;5.80;2.50;;;;;;;36.31;48.07;100295.51;108118;1286;21983;-72
2023/06/15 07:47:24;;;;;;;5.20;2.70;;;;;;;36.38;47.32;100299.77;108263;1282;23637;-72
2023/06/15 07:49:50;;;;;;;4.10;2.80;;;;;;;36.55;47.40;100298.98;108245;1286;21995;-72
2023/06/15 07:52:16;;;;;;;4.10;2.70;;;;;;;36.86;45.31;100297.40;108256;1281;22160;-72
2023/06/15 07:54:42;;;;;;;4.40;2.80;;;;;;;37.01;45.59;100296.16;108191;1286;23647;-71
2023/06/15 07:57:08;;;;;;;7.80;2.90;;;;;;;37.13;44.96;100298.85;108083;1286;23077;-72
2023/06/15 07:59:34;;;;;;;6.30;2.70;;;;;;;37.28;46.08;100294.64;108301;1280;21995;-71
2023/06/15 08:02:02;;;;;;;6.20;2.80;;;;;;;37.45;44.12;100295.05;108272;1280;22106;-72
2023/06/15 08:04:28;;;;;;;6.90;2.80;;;;;;;37.47;43.60;100298.89;108250;1286;21994;-66
2023/06/15 08:06:54;;;;;;;6.70;3.10;;;;;;;37.59;44.58;100302.61;108151;1286;21996;-66
2023/06/15 08:09:22;;;;;;;5.90;2.60;;;;;;;37.71;43.60;100297.77;107988;1286;22003;-71
2023/06/15 08:11:49;;;;;;;4.80;2.80;;;;;;;37.84;43.94;100296.96;108130;1287;21992;-71
2023/06/15 08:14:14;;;;;;;4.60;3.00;;;;;;;38.11;43.61;100293.64;108109;1277;22177;-70
2023/06/15 08:16:40;;;;;;;5.20;2.40;;;;;;;38.41;43.75;100290.68;108088;1277;21990;-71
2023/06/15 08:19:06;;;;;;;4.20;2.90;;;;;;;38.65;43.11;100290.42;108085;1283;22458;-70
2023/06/15 08:21:32;;;;;;;6.10;2.80;;;;;;;38.86;43.03;100292.66;108261;1279;22012;-65
2023/06/15 08:23:58;;;;;;;4.80;2.70;;;;;;;39.06;42.55;100286.40;108105;1286;21992;-69
2023/06/15 08:26:23;;;;;;;3.30;2.30;;;;;;;39.11;39.13;100290.52;108087;1286;22001;-70
2023/06/15 08:28:49;;;;;;;4.50;2.60;;;;;;;39.09;38.55;100289.74;108094;1286;21992;-71
2023/06/15 08:31:15;;;;;;;5.10;3.10;;;;;;;38.97;38.24;100292.58;108123;1280;22028;-70
2023/06/15 08:33:41;;;;;;;5.00;2.90;;;;;;;38.83;39.48;100294.84;108147;1282;21984;-71
2023/06/15 08:36:07;;;;;;;4.00;2.50;;;;;;;38.76;38.69;100290.42;108151;1286;22905;-71
2023/06/15 08:38:33;;;;;;;5.60;3.00;;;;;;;38.75;38.77;100292.36;108204;1276;21988;-65
2023/06/15 08:40:59;;;;;;;5.50;2.40;;;;;;;38.67;39.05;100294.16;108149;1286;22024;-73
2023/06/15 08:43:25;;;;;;;4.80;2.70;;;;;;;38.66;37.47;100292.85;108107;1286;24160;-66
2023/06/15 08:45:53;;;;;;;4.10;2.50;;;;;;;38.61;38.55;100295.80;108000;1286;21979;-65
2023/06/15 08:48:19;;;;;;;3.90;2.70;;;;;;;38.85;39.58;100292.58;109234;1286;22024;-69
2023/06/15 08:50:45;;;;;;;6.90;2.70;;;;;;;39.25;37.95;100288.64;107884;1283;22111;-65
2023/06/15 08:53:11;;;;;;;3.50;2.60;;;;;;;39.59;37.97;100286.27;107846;1282;21989;-70
2023/06/15 08:55:36;;;;;;;4.90;2.80;;;;;;;39.84;38.10;100286.67;108153;1286;23653;-69
2023/06/15 08:58:07;;;;;;;6.30;2.80;;;;;;;39.76;36.78;100282.96;108213;1276;21990;-70
2023/06/15 09:00:32;;;;;;;;;;;;;;;39.62;36.99;100283.81;108096;1283;21985;-69
2023/06/15 09:03:00;;;;;;;4.30;2.80;;;;;;;39.60;35.41;100282.41;108017;1284;22029;-66
2023/06/15 09:05:26;;;;;;;6.70;2.80;;;;;;;39.32;33.97;100281.64;108099;1286;23621;-65
2023/06/15 09:07:52;;;;;;;3.80;2.30;;;;;;;39.08;34.96;100284.42;108141;1286;23611;-70
2023/06/15 09:10:19;;;;;;;4.10;2.50;;;;;;;39.05;36.05;100282.13;108167;1286;23615;-71
2023/06/15 09:12:51;;;;;;;4.10;2.10;;;;;;;39.29;36.65;100276.95;108145;1286;23644;-66
2023/06/15 09:15:21;;;;;;;3.90;2.50;;;;;;;39.60;36.35;100270.17;108112;1286;23729;-67
2023/06/15 09:18:00;;;;;;;;;;;;;;;39.88;35.84;100268.53;108168;1286;21978;-66
2023/06/15 09:20:31;;;;;;;5.40;2.50;;;;;;;40.09;34.97;100269.33;108187;1286;23625;-66
2023/06/15 09:22:58;;;;;;;3.80;2.50;;;;;;;40.05;33.46;100268.61;108167;1286;23625;-71
2023/06/15 09:25:24;;;;;;;6.80;3.10;;;;;;;40.08;34.66;100271.79;108173;1286;21992;-71
2023/06/15 09:27:56;;;;;;;3.70;2.40;;;;;;;40.33;35.71;100268.96;108086;1276;22028;-71
2023/06/15 09:30:30;;;;;;;4.90;2.70;;;;;;;40.61;34.59;100268.32;108078;1286;21994;-72
2023/06/15 09:32:57;;;;;;;7.60;2.90;;;;;;;40.75;34.71;100269.96;108125;1278;22000;-72
2023/06/15 09:35:23;;;;;;;4.70;3.00;;;;;;;40.78;34.73;100272.95;108168;1286;23653;-67
2023/06/15 09:37:52;;;;;;;6.30;2.90;;;;;;;40.64;33.44;100273.23;108119;1286;21993;-72
2023/06/15 09:40:18;;;;;;;4.90;2.50;;;;;;;40.41;32.88;100271.77;108142;1286;22919;-66
2023/06/15 09:42:49;;;;;;;5.60;2.60;;;;;;;40.33;33.54;100271.80;108122;1280;24068;-71
2023/06/15 09:45:15;;;;;;;4.40;2.30;;;;;;;40.41;33.42;100265.15;107902;1286;23641;-67
2023/06/15 09:47:40;;;;;;;4.00;2.30;;;;;;;40.50;33.51;100263.37;107844;1286;23721;-65
2023/06/15 09:50:10;;;;;;;6.20;2.60;;;;;;;40.72;32.68;100261.02;108091;1280;21995;-67
2023/06/15 09:52:41;;;;;;;5.20;2.50;;;;;;;40.89;32.89;100261.81;108871;1286;22269;-65
2023/06/15 09:55:08;;;;;;;5.70;2.50;;;;;;;40.84;32.73;100259.94;108136;1286;24468;-66
2023/06/15 09:57:34;;;;;;;3.20;2.30;;;;;;;40.87;32.89;100259.18;108290;1286;22001;-71
2023/06/15 10:00:02;;;;;;;4.00;2.20;;;;;;;41.02;33.20;100261.55;108128;1277;22037;-69
2023/06/15 10:02:28;;;;;;;3.40;2.40;;;;;;;41.27;32.83;100265.41;108172;1273;23100;-65
2023/06/15 10:04:54;;;;;;;6.60;2.60;;;;;;;41.28;31.61;100261.52;108149;1281;22008;-70
2023/06/15 10:07:20;;;;;;;5.00;2.40;;;;;;;41.03;31.50;100258.73;108203;1277;22028;-66
2023/06/15 10:09:49;;;;;;;5.20;2.50;;;;;;;41.07;32.48;100255.96;108120;1286;21959;-65
2023/06/15 10:12:20;;;;;;;3.60;2.70;;;;;;;41.12;29.71;100251.64;108134;1286;21990;-70
2023/06/15 10:15:12;;;;;;;2.60;2.20;;;;;;;40.98;29.65;100247.27;108266;1286;24455;-69
2023/06/15 10:17:40;;;;;;;2.70;2.40;;;;;;;41.07;31.08;100248.86;108153;1286;21992;-65
2023/06/15 10:20:12;;;;;;;6.40;2.60;;;;;;;41.41;30.87;100251.77;107926;1273;21990;-66
2023/06/15 10:22:50;;;;;;;4.10;2.40;;;;;;;41.71;31.35;100249.05;108114;1286;22171;-68
2023/06/15 10:25:16;;;;;;;4.70;2.60;;;;;;;41.83;31.49;100243.34;108149;1280;24072;-66
2023/06/15 10:27:44;;;;;;;3.10;2.50;;;;;;;41.88;31.28;100242.05;108127;1286;21997;-65
2023/06/15 10:30:15;;;;;;;6.00;2.70;;;;;;;41.96;31.19;100242.95;108122;1276;22003;-65
2023/06/15 10:33:04;;;;;;;4.20;2.60;;;;;;;42.06;31.38;100242.55;108157;1286;22105;-70
2023/06/15 10:35:34;;;;;;;4.50;2.60;;;;;;;42.19;30.70;100239.03;108165;1286;22564;-65
2023/06/15 10:38:00;;;;;;;3.60;2.70;;;;;;;42.22;30.27;100239.84;109210;1286;21993;-71
2023/06/15 10:40:30;;;;;;;4.60;2.30;;;;;;;42.10;29.69;100234.05;108150;1274;21983;-71
2023/06/15 10:42:56;;;;;;;4.80;2.60;;;;;;;42.05;29.14;100233.67;108131;1286;21984;-70
2023/06/15 10:45:32;;;;;;;4.50;2.40;;;;;;;42.04;29.79;100234.36;108144;1286;21987;-66
2023/06/15 10:48:03;;;;;;;5.50;2.40;;;;;;;42.01;30.04;100234.53;108120;1286;21987;-67
2023/06/15 10:50:37;;;;;;;4.60;2.20;;;;;;;42.13;30.21;100231.52;108120;1282;21988;-69
2023/06/15 10:53:03;;;;;;;4.50;2.50;;;;;;;42.47;30.51;100230.11;108148;1286;23647;-72
2023/06/15 10:55:29;;;;;;;4.70;2.20;;;;;;;42.70;29.47;100228.67;108138;1286;23653;-71
2023/06/15 10:58:16;;;;;;;5.40;2.40;;;;;;;42.59;29.32;100229.33;108130;1286;22816;-71
2023/06/15 11:00:45;;;;;;;4.40;2.30;;;;;;;42.47;29.55;100229.06;108138;1276;21992;-70
2023/06/15 11:03:23;;;;;;;4.40;2.20;;;;;;;42.44;29.26;100228.26;108288;1286;23636;-70
2023/06/15 11:05:49;;;;;;;3.40;2.30;;;;;;;42.45;28.65;100227.30;108110;1277;23314;-71
2023/06/15 11:08:16;;;;;;;5.10;2.30;;;;;;;42.29;28.01;100224.66;107700;1282;21989;-70
2023/06/15 11:10:42;;;;;;;5.50;2.80;;;;;;;42.10;27.95;100223.59;107968;1286;23708;-71
2023/06/15 11:13:08;;;;;;;5.70;2.50;;;;;;;41.95;28.04;100221.97;107692;1280;21995;-70
2023/06/15 11:15:35;;;;;;;7.00;2.30;;;;;;;41.95;28.61;100223.03;108111;1286;23686;-71